sensor_id;sensor_type;location;lat;lon;timestamp;temperature;humidity
18777;DHT22;9517;51.174;4.160;2023-03-23T00:02:23;13.00;99.90
18777;DHT22;9517;51.174;4.160;2023-03-23T00:04:51;13.10;99.90
18777;DHT22;9517;51.174;4.160;2023-03-23T00:07:18;13.10;99.90
18777;DHT22;9517;51.174;4.160;2023-03-23T00:09:47;13.00;99.90
18777;DHT22;9517;51.174;4.160;2023-03-23T00:12:19;13.00;99.90
18777;DHT22;9517;51.174;4.160;2023-03-23T00:14:47;13.10;99.90
18777;DHT22;9517;51.174;4.160;2023-03-23T00:17:14;13.10;99.90
18777;DHT22;9517;51.174;4.160;2023-03-23T00:19:42;13.10;99.90
18777;DHT22;9517;51.174;4.160;2023-03-23T00:22:13;13.10;99.90
18777;DHT22;9517;51.174;4.160;2023-03-23T00:24:41;13.00;99.90
18777;DHT22;9517;51.174;4.160;2023-03-23T00:27:09;13.00;99.90
18777;DHT22;9517;51.174;4.160;2023-03-23T00:29:38;13.00;99.90
18777;DHT22;9517;51.174;4.160;2023-03-23T00:32:06;13.00;99.90
18777;DHT22;9517;51.174;4.160;2023-03-23T00:34:38;13.00;99.90
18777;DHT22;9517;51.174;4.160;2023-03-23T00:37:07;13.10;99.90
18777;DHT22;9517;51.174;4.160;2023-03-23T00:39:35;13.00;99.90
18777;DHT22;9517;51.174;4.160;2023-03-23T00:42:03;13.10;99.90
18777;DHT22;9517;51.174;4.160;2023-03-23T00:44:32;13.00;99.90
18777;DHT22;9517;51.174;4.160;2023-03-23T00:47:01;13.00;99.90
18777;DHT22;9517;51.174;4.160;2023-03-23T00:49:28;13.10;99.90
18777;DHT22;9517;51.174;4.160;2023-03-23T00:51:57;13.10;99.90
18777;DHT22;9517;51.174;4.160;2023-03-23T00:54:26;13.00;99.90
18777;DHT22;9517;51.174;4.160;2023-03-23T00:56:54;13.00;99.90
18777;DHT22;9517;51.174;4.160;2023-03-23T00:59:21;13.10;99.90
18777;DHT22;9517;51.174;4.160;2023-03-23T01:01:49;13.10;99.90
18777;DHT22;9517;51.174;4.160;2023-03-23T01:04:16;13.10;99.90
18777;DHT22;9517;51.174;4.160;2023-03-23T01:06:44;13.00;99.90
18777;DHT22;9517;51.174;4.160;2023-03-23T01:09:17;13.00;99.90
18777;DHT22;9517;51.174;4.160;2023-03-23T01:11:46;13.00;99.90
18777;DHT22;9517;51.174;4.160;2023-03-23T01:14:15;13.00;99.90
18777;DHT22;9517;51.174;4.160;2023-03-23T01:16:42;13.10;99.90
18777;DHT22;9517;51.174;4.160;2023-03-23T01:19:10;13.10;99.90
18777;DHT22;9517;51.174;4.160;2023-03-23T01:21:37;13.10;99.90
18777;DHT22;9517;51.174;4.160;2023-03-23T01:24:04;13.00;99.90
18777;DHT22;9517;51.174;4.160;2023-03-23T01:26:32;13.10;99.90
18777;DHT22;9517;51.174;4.160;2023-03-23T01:29:00;13.10;99.90
18777;DHT22;9517;51.174;4.160;2023-03-23T01:31:27;13.10;99.90
18777;DHT22;9517;51.174;4.160;2023-03-23T01:33:55;13.10;99.90
18777;DHT22;9517;51.174;4.160;2023-03-23T01:36:23;13.10;99.90
18777;DHT22;9517;51.174;4.160;2023-03-23T01:38:52;13.10;99.90
18777;DHT22;9517;51.174;4.160;2023-03-23T01:41:19;13.20;99.90
18777;DHT22;9517;51.174;4.160;2023-03-23T01:43:58;13.20;99.90
18777;DHT22;9517;51.174;4.160;2023-03-23T01:46:29;13.20;99.90
18777;DHT22;9517;51.174;4.160;2023-03-23T01:49:00;13.10;99.90
18777;DHT22;9517;51.174;4.160;2023-03-23T01:51:32;13.20;99.90
18777;DHT22;9517;51.174;4.160;2023-03-23T01:54:02;13.10;99.90
18777;DHT22;9517;51.174;4.160;2023-03-23T01:56:35;13.10;99.90
18777;DHT22;9517;51.174;4.160;2023-03-23T01:59:04;13.10;99.90
18777;DHT22;9517;51.174;4.160;2023-03-23T02:01:33;13.10;99.90
18777;DHT22;9517;51.174;4.160;2023-03-23T02:04:05;13.10;99.90
18777;DHT22;9517;51.174;4.160;2023-03-23T02:06:33;13.00;99.90
18777;DHT22;9517;51.174;4.160;2023-03-23T02:09:00;13.00;99.90
18777;DHT22;9517;51.174;4.160;2023-03-23T02:11:28;13.00;99.90
18777;DHT22;9517;51.174;4.160;2023-03-23T02:13:55;13.00;99.90
18777;DHT22;9517;51.174;4.160;2023-03-23T02:16:30;12.90;99.90
18777;DHT22;9517;51.174;4.160;2023-03-23T02:19:13;13.00;99.90
18777;DHT22;9517;51.174;4.160;2023-03-23T02:22:07;13.10;99.90
18777;DHT22;9517;51.174;4.160;2023-03-23T02:25:04;13.00;99.90
18777;DHT22;9517;51.174;4.160;2023-03-23T02:28:12;13.10;99.90
18777;DHT22;9517;51.174;4.160;2023-03-23T02:30:59;13.10;99.90
18777;DHT22;9517;51.174;4.160;2023-03-23T02:33:38;13.00;99.90
18777;DHT22;9517;51.174;4.160;2023-03-23T02:36:13;13.00;99.90
18777;DHT22;9517;51.174;4.160;2023-03-23T02:38:45;13.00;99.90
18777;DHT22;9517;51.174;4.160;2023-03-23T02:41:18;13.00;99.90
18777;DHT22;9517;51.174;4.160;2023-03-23T02:43:47;13.00;99.90
18777;DHT22;9517;51.174;4.160;2023-03-23T02:46:16;13.00;99.90
18777;DHT22;9517;51.174;4.160;2023-03-23T02:48:46;13.00;99.90
18777;DHT22;9517;51.174;4.160;2023-03-23T02:51:18;12.90;99.90
18777;DHT22;9517;51.174;4.160;2023-03-23T02:53:46;12.90;99.90
18777;DHT22;9517;51.174;4.160;2023-03-23T02:56:14;12.90;99.90
18777;DHT22;9517;51.174;4.160;2023-03-23T02:58:42;13.00;99.90
18777;DHT22;9517;51.174;4.160;2023-03-23T03:04:03;13.00;99.90
18777;DHT22;9517;51.174;4.160;2023-03-23T03:06:36;13.00;99.90
18777;DHT22;9517;51.174;4.160;2023-03-23T03:09:14;13.00;99.90
18777;DHT22;9517;51.174;4.160;2023-03-23T03:11:46;12.90;99.90
18777;DHT22;9517;51.174;4.160;2023-03-23T03:14:20;13.00;99.90
18777;DHT22;9517;51.174;4.160;2023-03-23T03:16:53;13.00;99.90
18777;DHT22;9517;51.174;4.160;2023-03-23T03:19:27;12.90;99.90
18777;DHT22;9517;51.174;4.160;2023-03-23T03:21:58;12.90;99.90
18777;DHT22;9517;51.174;4.160;2023-03-23T03:24:28;12.90;99.90
18777;DHT22;9517;51.174;4.160;2023-03-23T03:26:58;12.90;99.90
18777;DHT22;9517;51.174;4.160;2023-03-23T03:29:28;12.90;99.90
18777;DHT22;9517;51.174;4.160;2023-03-23T03:31:58;12.90;99.90
18777;DHT22;9517;51.174;4.160;2023-03-23T03:34:27;12.90;99.90
18777;DHT22;9517;51.174;4.160;2023-03-23T03:36:58;12.90;99.90
18777;DHT22;9517;51.174;4.160;2023-03-23T03:39:26;12.90;99.90
18777;DHT22;9517;51.174;4.160;2023-03-23T03:41:54;12.90;99.90
18777;DHT22;9517;51.174;4.160;2023-03-23T03:44:21;12.80;99.90
18777;DHT22;9517;51.174;4.160;2023-03-23T03:46:49;12.60;99.90
18777;DHT22;9517;51.174;4.160;2023-03-23T03:49:16;12.50;99.90
18777;DHT22;9517;51.174;4.160;2023-03-23T03:51:44;12.40;99.90
18777;DHT22;9517;51.174;4.160;2023-03-23T03:54:11;12.40;99.90
18777;DHT22;9517;51.174;4.160;2023-03-23T03:56:39;12.30;99.90
18777;DHT22;9517;51.174;4.160;2023-03-23T03:59:07;12.30;99.90
18777;DHT22;9517;51.174;4.160;2023-03-23T04:01:36;12.30;99.90
18777;DHT22;9517;51.174;4.160;2023-03-23T04:04:04;12.40;99.90
18777;DHT22;9517;51.174;4.160;2023-03-23T04:06:32;12.40;99.90
18777;DHT22;9517;51.174;4.160;2023-03-23T04:09:05;12.40;99.90
18777;DHT22;9517;51.174;4.160;2023-03-23T04:11:33;12.50;99.90
18777;DHT22;9517;51.174;4.160;2023-03-23T04:14:00;12.50;99.90
18777;DHT22;9517;51.174;4.160;2023-03-23T04:16:28;12.50;99.90
18777;DHT22;9517;51.174;4.160;2023-03-23T04:18:56;12.60;99.90
18777;DHT22;9517;51.174;4.160;2023-03-23T04:21:24;12.60;99.90
18777;DHT22;9517;51.174;4.160;2023-03-23T04:23:54;12.70;99.90
18777;DHT22;9517;51.174;4.160;2023-03-23T04:26:26;12.70;99.90
18777;DHT22;9517;51.174;4.160;2023-03-23T04:28:54;12.70;99.90
18777;DHT22;9517;51.174;4.160;2023-03-23T04:31:21;12.60;99.90
18777;DHT22;9517;51.174;4.160;2023-03-23T04:33:50;12.60;99.90
18777;DHT22;9517;51.174;4.160;2023-03-23T04:36:19;12.70;99.90
18777;DHT22;9517;51.174;4.160;2023-03-23T04:38:48;12.60;99.90
18777;DHT22;9517;51.174;4.160;2023-03-23T04:41:20;12.60;99.90
18777;DHT22;9517;51.174;4.160;2023-03-23T04:43:50;12.50;99.90
18777;DHT22;9517;51.174;4.160;2023-03-23T04:46:22;12.60;99.90
18777;DHT22;9517;51.174;4.160;2023-03-23T04:48:49;12.50;99.90
18777;DHT22;9517;51.174;4.160;2023-03-23T04:51:16;12.60;99.90
18777;DHT22;9517;51.174;4.160;2023-03-23T04:53:43;12.60;99.90
18777;DHT22;9517;51.174;4.160;2023-03-23T04:56:10;12.60;99.90
18777;DHT22;9517;51.174;4.160;2023-03-23T04:58:39;12.60;99.90
18777;DHT22;9517;51.174;4.160;2023-03-23T05:01:07;12.60;99.90
18777;DHT22;9517;51.174;4.160;2023-03-23T05:03:34;12.50;99.90
18777;DHT22;9517;51.174;4.160;2023-03-23T05:06:02;12.50;99.90
18777;DHT22;9517;51.174;4.160;2023-03-23T05:08:29;12.50;99.90
18777;DHT22;9517;51.174;4.160;2023-03-23T05:10:58;12.60;99.90
18777;DHT22;9517;51.174;4.160;2023-03-23T05:13:27;12.50;99.90
18777;DHT22;9517;51.174;4.160;2023-03-23T05:15:54;12.50;99.90
18777;DHT22;9517;51.174;4.160;2023-03-23T05:18:22;12.50;99.90
18777;DHT22;9517;51.174;4.160;2023-03-23T05:20:51;12.60;99.90
18777;DHT22;9517;51.174;4.160;2023-03-23T05:23:19;12.60;99.90
18777;DHT22;9517;51.174;4.160;2023-03-23T05:25:53;12.60;99.90
18777;DHT22;9517;51.174;4.160;2023-03-23T05:28:20;12.60;99.90
18777;DHT22;9517;51.174;4.160;2023-03-23T05:30:48;12.60;99.90
18777;DHT22;9517;51.174;4.160;2023-03-23T05:33:15;12.50;99.90
18777;DHT22;9517;51.174;4.160;2023-03-23T05:35:45;12.50;99.90
18777;DHT22;9517;51.174;4.160;2023-03-23T05:38:12;12.50;99.90
18777;DHT22;9517;51.174;4.160;2023-03-23T05:40:40;12.50;99.90
18777;DHT22;9517;51.174;4.160;2023-03-23T05:43:08;12.40;99.90
18777;DHT22;9517;51.174;4.160;2023-03-23T05:45:35;12.40;99.90
18777;DHT22;9517;51.174;4.160;2023-03-23T05:48:03;12.50;99.90
18777;DHT22;9517;51.174;4.160;2023-03-23T05:50:30;12.40;99.90
18777;DHT22;9517;51.174;4.160;2023-03-23T05:52:58;12.40;99.90
18777;DHT22;9517;51.174;4.160;2023-03-23T05:55:26;12.30;99.90
18777;DHT22;9517;51.174;4.160;2023-03-23T05:57:53;12.30;99.90
18777;DHT22;9517;51.174;4.160;2023-03-23T06:00:21;12.30;99.90
18777;DHT22;9517;51.174;4.160;2023-03-23T06:02:49;12.20;99.90
18777;DHT22;9517;51.174;4.160;2023-03-23T06:05:17;12.00;99.90
18777;DHT22;9517;51.174;4.160;2023-03-23T06:07:45;11.70;99.90
18777;DHT22;9517;51.174;4.160;2023-03-23T06:10:14;11.60;99.90
18777;DHT22;9517;51.174;4.160;2023-03-23T06:12:42;11.30;99.90
18777;DHT22;9517;51.174;4.160;2023-03-23T06:15:09;11.20;99.90
18777;DHT22;9517;51.174;4.160;2023-03-23T06:17:37;11.00;99.90
18777;DHT22;9517;51.174;4.160;2023-03-23T06:20:05;10.80;99.90
18777;DHT22;9517;51.174;4.160;2023-03-23T06:22:36;10.70;99.90
18777;DHT22;9517;51.174;4.160;2023-03-23T06:25:04;10.50;99.90
18777;DHT22;9517;51.174;4.160;2023-03-23T06:27:33;10.40;99.90
18777;DHT22;9517;51.174;4.160;2023-03-23T06:30:01;10.40;99.90
18777;DHT22;9517;51.174;4.160;2023-03-23T06:32:29;10.40;99.90
18777;DHT22;9517;51.174;4.160;2023-03-23T06:34:57;10.30;99.90
18777;DHT22;9517;51.174;4.160;2023-03-23T06:37:24;10.40;99.90
18777;DHT22;9517;51.174;4.160;2023-03-23T06:39:51;10.40;99.90
18777;DHT22;9517;51.174;4.160;2023-03-23T06:42:19;10.30;99.90
18777;DHT22;9517;51.174;4.160;2023-03-23T06:44:48;10.30;99.90
18777;DHT22;9517;51.174;4.160;2023-03-23T06:47:15;10.30;99.90
18777;DHT22;9517;51.174;4.160;2023-03-23T06:49:42;10.30;99.90
18777;DHT22;9517;51.174;4.160;2023-03-23T06:52:09;10.30;99.90
18777;DHT22;9517;51.174;4.160;2023-03-23T06:54:36;10.30;99.90
18777;DHT22;9517;51.174;4.160;2023-03-23T06:57:03;10.30;99.90
18777;DHT22;9517;51.174;4.160;2023-03-23T06:59:32;10.30;99.90
18777;DHT22;9517;51.174;4.160;2023-03-23T07:02:05;10.30;99.90
18777;DHT22;9517;51.174;4.160;2023-03-23T07:04:35;10.20;99.90
18777;DHT22;9517;51.174;4.160;2023-03-23T07:07:03;10.20;99.90
18777;DHT22;9517;51.174;4.160;2023-03-23T07:09:31;10.20;99.90
18777;DHT22;9517;51.174;4.160;2023-03-23T07:11:58;10.20;99.90
18777;DHT22;9517;51.174;4.160;2023-03-23T07:14:25;10.20;99.90
18777;DHT22;9517;51.174;4.160;2023-03-23T07:16:55;10.20;99.90
18777;DHT22;9517;51.174;4.160;2023-03-23T07:19:28;10.20;99.90
18777;DHT22;9517;51.174;4.160;2023-03-23T07:21:56;10.20;99.90
18777;DHT22;9517;51.174;4.160;2023-03-23T07:24:23;10.20;99.90
18777;DHT22;9517;51.174;4.160;2023-03-23T07:26:51;10.10;99.90
18777;DHT22;9517;51.174;4.160;2023-03-23T07:29:19;10.10;99.90
18777;DHT22;9517;51.174;4.160;2023-03-23T07:31:46;10.00;99.90
18777;DHT22;9517;51.174;4.160;2023-03-23T07:34:13;10.00;99.90
18777;DHT22;9517;51.174;4.160;2023-03-23T07:36:42;10.00;99.90
18777;DHT22;9517;51.174;4.160;2023-03-23T07:39:09;10.00;99.90
18777;DHT22;9517;51.174;4.160;2023-03-23T07:41:37;10.10;99.90
18777;DHT22;9517;51.174;4.160;2023-03-23T07:44:05;10.10;99.90
18777;DHT22;9517;51.174;4.160;2023-03-23T07:46:32;10.20;99.90
18777;DHT22;9517;51.174;4.160;2023-03-23T07:49:01;10.20;99.90
18777;DHT22;9517;51.174;4.160;2023-03-23T07:51:31;10.20;99.90
18777;DHT22;9517;51.174;4.160;2023-03-23T07:54:00;10.20;99.90
18777;DHT22;9517;51.174;4.160;2023-03-23T07:56:32;10.20;99.90
18777;DHT22;9517;51.174;4.160;2023-03-23T07:59:00;10.30;99.90
18777;DHT22;9517;51.174;4.160;2023-03-23T08:01:28;10.40;99.90
18777;DHT22;9517;51.174;4.160;2023-03-23T08:03:55;10.40;99.90
18777;DHT22;9517;51.174;4.160;2023-03-23T08:06:23;10.30;99.90
18777;DHT22;9517;51.174;4.160;2023-03-23T08:08:51;10.40;99.90
18777;DHT22;9517;51.174;4.160;2023-03-23T08:11:20;10.40;99.90
18777;DHT22;9517;51.174;4.160;2023-03-23T08:13:47;10.40;99.90
18777;DHT22;9517;51.174;4.160;2023-03-23T08:16:14;10.60;99.90
18777;DHT22;9517;51.174;4.160;2023-03-23T08:18:42;10.70;99.90
18777;DHT22;9517;51.174;4.160;2023-03-23T08:21:09;10.70;99.90
18777;DHT22;9517;51.174;4.160;2023-03-23T08:23:36;10.90;99.90
18777;DHT22;9517;51.174;4.160;2023-03-23T08:26:04;11.00;99.90
18777;DHT22;9517;51.174;4.160;2023-03-23T08:28:34;11.10;99.90
18777;DHT22;9517;51.174;4.160;2023-03-23T08:31:06;11.30;99.90
18777;DHT22;9517;51.174;4.160;2023-03-23T08:33:35;11.30;99.90
18777;DHT22;9517;51.174;4.160;2023-03-23T08:36:08;11.50;99.90
18777;DHT22;9517;51.174;4.160;2023-03-23T08:38:35;11.70;99.90
18777;DHT22;9517;51.174;4.160;2023-03-23T08:41:05;11.70;99.90
18777;DHT22;9517;51.174;4.160;2023-03-23T08:43:34;11.90;99.90
18777;DHT22;9517;51.174;4.160;2023-03-23T08:46:03;12.10;99.90
18777;DHT22;9517;51.174;4.160;2023-03-23T08:48:34;12.30;99.90
18777;DHT22;9517;51.174;4.160;2023-03-23T08:51:02;12.40;99.90
18777;DHT22;9517;51.174;4.160;2023-03-23T08:53:29;12.40;99.90
18777;DHT22;9517;51.174;4.160;2023-03-23T08:56:03;12.40;99.90
18777;DHT22;9517;51.174;4.160;2023-03-23T08:58:30;12.60;99.90
18777;DHT22;9517;51.174;4.160;2023-03-23T09:00:59;12.60;99.90
18777;DHT22;9517;51.174;4.160;2023-03-23T09:03:26;12.70;99.90
18777;DHT22;9517;51.174;4.160;2023-03-23T09:05:57;12.40;99.90
18777;DHT22;9517;51.174;4.160;2023-03-23T09:08:25;12.60;99.90
18777;DHT22;9517;51.174;4.160;2023-03-23T09:10:54;12.80;99.90
18777;DHT22;9517;51.174;4.160;2023-03-23T09:13:22;12.90;99.90
18777;DHT22;9517;51.174;4.160;2023-03-23T09:15:49;13.00;99.90
18777;DHT22;9517;51.174;4.160;2023-03-23T09:18:19;13.10;99.90
18777;DHT22;9517;51.174;4.160;2023-03-23T09:20:46;13.20;99.90
18777;DHT22;9517;51.174;4.160;2023-03-23T09:23:16;13.40;99.90
18777;DHT22;9517;51.174;4.160;2023-03-23T09:25:43;13.50;99.90
18777;DHT22;9517;51.174;4.160;2023-03-23T09:28:10;13.40;99.90
18777;DHT22;9517;51.174;4.160;2023-03-23T09:30:40;13.40;99.90
18777;DHT22;9517;51.174;4.160;2023-03-23T09:33:08;13.70;99.90
18777;DHT22;9517;51.174;4.160;2023-03-23T09:35:37;14.10;99.90
18777;DHT22;9517;51.174;4.160;2023-03-23T09:38:08;14.30;99.90
18777;DHT22;9517;51.174;4.160;2023-03-23T09:40:42;14.30;99.90
18777;DHT22;9517;51.174;4.160;2023-03-23T09:43:36;14.60;99.90
18777;DHT22;9517;51.174;4.160;2023-03-23T09:49:01;14.60;99.90
18777;DHT22;9517;51.174;4.160;2023-03-23T09:51:41;14.80;99.90
18777;DHT22;9517;51.174;4.160;2023-03-23T09:54:17;14.60;99.90
18777;DHT22;9517;51.174;4.160;2023-03-23T09:56:46;14.60;99.90
18777;DHT22;9517;51.174;4.160;2023-03-23T09:59:19;14.60;99.90
18777;DHT22;9517;51.174;4.160;2023-03-23T10:01:48;14.50;99.90
18777;DHT22;9517;51.174;4.160;2023-03-23T10:04:28;14.40;99.90
18777;DHT22;9517;51.174;4.160;2023-03-23T10:06:59;14.50;99.90
18777;DHT22;9517;51.174;4.160;2023-03-23T10:09:28;14.50;99.90
18777;DHT22;9517;51.174;4.160;2023-03-23T10:12:04;14.50;99.90
18777;DHT22;9517;51.174;4.160;2023-03-23T10:14:46;14.60;99.90
18777;DHT22;9517;51.174;4.160;2023-03-23T10:17:20;14.80;99.90
18777;DHT22;9517;51.174;4.160;2023-03-23T10:19:52;14.80;99.90
18777;DHT22;9517;51.174;4.160;2023-03-23T10:22:28;14.60;99.90
18777;DHT22;9517;51.174;4.160;2023-03-23T10:25:02;14.70;99.90
18777;DHT22;9517;51.174;4.160;2023-03-23T10:27:33;14.90;99.90
18777;DHT22;9517;51.174;4.160;2023-03-23T10:30:14;14.90;99.90
18777;DHT22;9517;51.174;4.160;2023-03-23T10:32:46;14.80;99.90
18777;DHT22;9517;51.174;4.160;2023-03-23T10:35:18;14.80;99.90
18777;DHT22;9517;51.174;4.160;2023-03-23T10:37:51;14.80;99.90
18777;DHT22;9517;51.174;4.160;2023-03-23T10:40:22;14.80;99.90
18777;DHT22;9517;51.174;4.160;2023-03-23T10:42:51;14.80;99.90
18777;DHT22;9517;51.174;4.160;2023-03-23T10:45:21;15.00;99.90
18777;DHT22;9517;51.174;4.160;2023-03-23T10:47:54;14.70;99.90
18777;DHT22;9517;51.174;4.160;2023-03-23T10:50:26;14.60;99.90
18777;DHT22;9517;51.174;4.160;2023-03-23T10:52:56;14.50;99.90
18777;DHT22;9517;51.174;4.160;2023-03-23T10:55:34;14.80;99.90
18777;DHT22;9517;51.174;4.160;2023-03-23T10:58:04;15.10;99.90
18777;DHT22;9517;51.174;4.160;2023-03-23T11:00:32;15.30;99.90
18777;DHT22;9517;51.174;4.160;2023-03-23T11:03:02;15.30;99.90
18777;DHT22;9517;51.174;4.160;2023-03-23T11:05:36;15.50;99.90
18777;DHT22;9517;51.174;4.160;2023-03-23T11:08:12;15.20;99.90
18777;DHT22;9517;51.174;4.160;2023-03-23T11:10:42;15.10;99.90
18777;DHT22;9517;51.174;4.160;2023-03-23T11:13:14;15.40;99.90
18777;DHT22;9517;51.174;4.160;2023-03-23T11:15:43;16.00;99.90
18777;DHT22;9517;51.174;4.160;2023-03-23T11:18:19;15.90;99.90
18777;DHT22;9517;51.174;4.160;2023-03-23T11:20:50;15.30;99.90
18777;DHT22;9517;51.174;4.160;2023-03-23T11:23:24;15.30;99.90
18777;DHT22;9517;51.174;4.160;2023-03-23T11:25:56;15.50;99.90
18777;DHT22;9517;51.174;4.160;2023-03-23T11:28:28;15.40;99.90
18777;DHT22;9517;51.174;4.160;2023-03-23T11:30:58;15.10;99.90
18777;DHT22;9517;51.174;4.160;2023-03-23T11:33:30;14.70;99.90
18777;DHT22;9517;51.174;4.160;2023-03-23T11:35:57;14.30;99.90
18777;DHT22;9517;51.174;4.160;2023-03-23T11:38:26;14.30;99.90
18777;DHT22;9517;51.174;4.160;2023-03-23T11:40:54;14.50;99.90
18777;DHT22;9517;51.174;4.160;2023-03-23T11:43:23;14.80;99.90
18777;DHT22;9517;51.174;4.160;2023-03-23T11:45:59;15.10;99.90
18777;DHT22;9517;51.174;4.160;2023-03-23T11:48:34;15.60;99.90
18777;DHT22;9517;51.174;4.160;2023-03-23T11:51:10;16.60;99.90
18777;DHT22;9517;51.174;4.160;2023-03-23T11:53:47;17.30;99.90
18777;DHT22;9517;51.174;4.160;2023-03-23T11:56:23;17.10;99.90
18777;DHT22;9517;51.174;4.160;2023-03-23T11:58:52;16.60;99.90
18777;DHT22;9517;51.174;4.160;2023-03-23T12:01:41;16.30;99.90
18777;DHT22;9517;51.174;4.160;2023-03-23T12:04:35;15.90;99.90
18777;DHT22;9517;51.174;4.160;2023-03-23T12:10:13;15.20;99.90
18777;DHT22;9517;51.174;4.160;2023-03-23T12:12:50;14.80;99.90
18777;DHT22;9517;51.174;4.160;2023-03-23T12:15:24;14.30;99.90
18777;DHT22;9517;51.174;4.160;2023-03-23T12:17:58;13.80;99.90
18777;DHT22;9517;51.174;4.160;2023-03-23T12:20:34;13.60;99.90
18777;DHT22;9517;51.174;4.160;2023-03-23T12:23:22;13.70;99.90
18777;DHT22;9517;51.174;4.160;2023-03-23T12:26:06;13.70;99.90
18777;DHT22;9517;51.174;4.160;2023-03-23T12:28:47;14.10;99.90
18777;DHT22;9517;51.174;4.160;2023-03-23T12:31:22;15.70;99.90
18777;DHT22;9517;51.174;4.160;2023-03-23T12:33:58;16.60;99.90
18777;DHT22;9517;51.174;4.160;2023-03-23T12:36:44;16.20;99.90
18777;DHT22;9517;51.174;4.160;2023-03-23T12:39:40;15.90;99.90
18777;DHT22;9517;51.174;4.160;2023-03-23T12:42:14;16.70;99.90
18777;DHT22;9517;51.174;4.160;2023-03-23T12:44:46;17.00;99.90
18777;DHT22;9517;51.174;4.160;2023-03-23T12:47:25;17.80;99.90
18777;DHT22;9517;51.174;4.160;2023-03-23T12:50:00;17.80;99.90
18777;DHT22;9517;51.174;4.160;2023-03-23T12:52:32;18.20;99.90
18777;DHT22;9517;51.174;4.160;2023-03-23T12:55:04;17.50;99.90
18777;DHT22;9517;51.174;4.160;2023-03-23T12:57:45;16.70;99.90
18777;DHT22;9517;51.174;4.160;2023-03-23T13:00:18;16.30;99.90
18777;DHT22;9517;51.174;4.160;2023-03-23T13:02:53;16.00;99.90
18777;DHT22;9517;51.174;4.160;2023-03-23T13:05:32;15.20;99.90
18777;DHT22;9517;51.174;4.160;2023-03-23T13:08:04;14.70;99.90
18777;DHT22;9517;51.174;4.160;2023-03-23T13:10:39;15.30;99.90
18777;DHT22;9517;51.174;4.160;2023-03-23T13:13:14;16.10;99.90
18777;DHT22;9517;51.174;4.160;2023-03-23T13:15:48;15.90;99.90
18777;DHT22;9517;51.174;4.160;2023-03-23T13:18:24;16.40;99.90
18777;DHT22;9517;51.174;4.160;2023-03-23T13:20:59;16.70;99.90
18777;DHT22;9517;51.174;4.160;2023-03-23T13:23:32;16.70;99.90
18777;DHT22;9517;51.174;4.160;2023-03-23T13:26:03;16.40;99.90
18777;DHT22;9517;51.174;4.160;2023-03-23T13:28:48;16.10;99.90
18777;DHT22;9517;51.174;4.160;2023-03-23T13:31:20;16.40;99.90
18777;DHT22;9517;51.174;4.160;2023-03-23T13:33:52;17.10;99.90
18777;DHT22;9517;51.174;4.160;2023-03-23T13:36:30;17.60;99.90
18777;DHT22;9517;51.174;4.160;2023-03-23T13:39:00;18.30;99.90
18777;DHT22;9517;51.174;4.160;2023-03-23T13:41:30;19.20;99.90
18777;DHT22;9517;51.174;4.160;2023-03-23T13:44:18;18.70;99.90
18777;DHT22;9517;51.174;4.160;2023-03-23T13:46:57;17.70;99.90
18777;DHT22;9517;51.174;4.160;2023-03-23T13:49:25;16.80;99.90
18777;DHT22;9517;51.174;4.160;2023-03-23T13:52:15;16.30;99.90
18777;DHT22;9517;51.174;4.160;2023-03-23T13:54:45;16.10;99.90
18777;DHT22;9517;51.174;4.160;2023-03-23T13:57:32;15.80;99.90
18777;DHT22;9517;51.174;4.160;2023-03-23T14:00:12;15.80;99.90
18777;DHT22;9517;51.174;4.160;2023-03-23T14:02:49;16.50;99.90
18777;DHT22;9517;51.174;4.160;2023-03-23T14:05:35;17.00;99.90
18777;DHT22;9517;51.174;4.160;2023-03-23T14:08:11;16.70;99.90
18777;DHT22;9517;51.174;4.160;2023-03-23T14:10:41;16.60;99.90
18777;DHT22;9517;51.174;4.160;2023-03-23T14:13:17;16.70;99.90
18777;DHT22;9517;51.174;4.160;2023-03-23T14:15:58;16.90;99.90
18777;DHT22;9517;51.174;4.160;2023-03-23T14:18:31;16.80;99.90
18777;DHT22;9517;51.174;4.160;2023-03-23T14:20:59;16.90;99.90
18777;DHT22;9517;51.174;4.160;2023-03-23T14:23:26;16.90;99.90
18777;DHT22;9517;51.174;4.160;2023-03-23T14:25:59;16.80;99.90
18777;DHT22;9517;51.174;4.160;2023-03-23T14:28:37;16.80;99.90
18777;DHT22;9517;51.174;4.160;2023-03-23T14:31:14;16.80;99.90
18777;DHT22;9517;51.174;4.160;2023-03-23T14:33:43;16.90;99.90
18777;DHT22;9517;51.174;4.160;2023-03-23T14:36:10;17.50;99.90
18777;DHT22;9517;51.174;4.160;2023-03-23T14:38:37;18.30;99.90
18777;DHT22;9517;51.174;4.160;2023-03-23T14:41:05;19.10;99.90
18777;DHT22;9517;51.174;4.160;2023-03-23T14:43:34;18.90;99.90
18777;DHT22;9517;51.174;4.160;2023-03-23T14:46:07;18.90;99.90
18777;DHT22;9517;51.174;4.160;2023-03-23T14:48:36;18.60;99.90
18777;DHT22;9517;51.174;4.160;2023-03-23T14:51:04;18.10;99.90
18777;DHT22;9517;51.174;4.160;2023-03-23T14:53:35;18.20;99.90
18777;DHT22;9517;51.174;4.160;2023-03-23T14:56:08;18.50;99.90
18777;DHT22;9517;51.174;4.160;2023-03-23T14:58:36;18.40;99.90
18777;DHT22;9517;51.174;4.160;2023-03-23T15:01:08;18.10;99.90
18777;DHT22;9517;51.174;4.160;2023-03-23T15:03:40;17.60;99.90
18777;DHT22;9517;51.174;4.160;2023-03-23T15:06:13;17.80;99.90
18777;DHT22;9517;51.174;4.160;2023-03-23T15:08:41;17.70;99.90
18777;DHT22;9517;51.174;4.160;2023-03-23T15:11:21;17.20;99.90
18777;DHT22;9517;51.174;4.160;2023-03-23T15:13:52;17.90;99.90
18777;DHT22;9517;51.174;4.160;2023-03-23T15:16:24;18.80;99.90
18777;DHT22;9517;51.174;4.160;2023-03-23T15:18:54;18.30;99.90
18777;DHT22;9517;51.174;4.160;2023-03-23T15:21:27;17.90;99.90
18777;DHT22;9517;51.174;4.160;2023-03-23T15:23:55;17.70;99.90
18777;DHT22;9517;51.174;4.160;2023-03-23T15:26:29;17.40;99.90
18777;DHT22;9517;51.174;4.160;2023-03-23T15:29:11;17.50;99.90
18777;DHT22;9517;51.174;4.160;2023-03-23T15:31:45;17.70;99.90
18777;DHT22;9517;51.174;4.160;2023-03-23T15:34:30;17.50;99.90
18777;DHT22;9517;51.174;4.160;2023-03-23T15:37:04;17.20;99.90
18777;DHT22;9517;51.174;4.160;2023-03-23T15:39:32;16.90;99.90
18777;DHT22;9517;51.174;4.160;2023-03-23T15:42:00;17.00;99.90
18777;DHT22;9517;51.174;4.160;2023-03-23T15:44:33;17.00;99.90
18777;DHT22;9517;51.174;4.160;2023-03-23T15:47:14;17.20;99.90
18777;DHT22;9517;51.174;4.160;2023-03-23T15:49:43;16.70;99.90
18777;DHT22;9517;51.174;4.160;2023-03-23T15:52:12;16.60;99.90
18777;DHT22;9517;51.174;4.160;2023-03-23T15:54:46;16.50;99.90
18777;DHT22;9517;51.174;4.160;2023-03-23T15:57:14;16.60;99.90
18777;DHT22;9517;51.174;4.160;2023-03-23T15:59:41;16.50;99.90
18777;DHT22;9517;51.174;4.160;2023-03-23T16:02:17;16.30;99.90
18777;DHT22;9517;51.174;4.160;2023-03-23T16:04:45;16.20;99.90
18777;DHT22;9517;51.174;4.160;2023-03-23T16:07:12;16.20;99.90
18777;DHT22;9517;51.174;4.160;2023-03-23T16:09:39;16.30;99.90
18777;DHT22;9517;51.174;4.160;2023-03-23T16:12:10;16.30;99.90
18777;DHT22;9517;51.174;4.160;2023-03-23T16:14:38;16.20;99.90
18777;DHT22;9517;51.174;4.160;2023-03-23T16:17:09;16.00;99.90
18777;DHT22;9517;51.174;4.160;2023-03-23T16:19:39;15.70;99.90